sensor_id;sensor_type;location;lat;lon;timestamp;pressure;altitude;pressure_sealevel;temperature;humidity
32873;BME280;19224;52.462;16.898;2023-02-10T00:01:58;101755.63;;;0.82;82.81
32873;BME280;19224;52.462;16.898;2023-02-10T00:04:29;101763.21;;;0.87;82.48
32873;BME280;19224;52.462;16.898;2023-02-10T00:07:00;101766.64;;;0.80;83.21
32873;BME280;19224;52.462;16.898;2023-02-10T00:09:30;101764.95;;;0.85;82.76
32873;BME280;19224;52.462;16.898;2023-02-10T00:12:01;101760.14;;;0.87;82.63
32873;BME280;19224;52.462;16.898;2023-02-10T00:14:31;101755.54;;;0.77;83.24
32873;BME280;19224;52.462;16.898;2023-02-10T00:17:02;101749.49;;;0.84;83.05
32873;BME280;19224;52.462;16.898;2023-02-10T00:19:33;101749.87;;;0.81;83.21
32873;BME280;19224;52.462;16.898;2023-02-10T00:22:04;101756.08;;;0.83;83.31
32873;BME280;19224;52.462;16.898;2023-02-10T00:24:35;101753.62;;;0.69;83.80
32873;BME280;19224;52.462;16.898;2023-02-10T00:27:06;101747.92;;;0.71;84.11
32873;BME280;19224;52.462;16.898;2023-02-10T00:29:36;101746.96;;;0.67;84.25
32873;BME280;19224;52.462;16.898;2023-02-10T00:32:07;101756.28;;;0.69;84.37
32873;BME280;19224;52.462;16.898;2023-02-10T00:34:39;101758.30;;;0.59;84.75
32873;BME280;19224;52.462;16.898;2023-02-10T00:37:09;101759.17;;;0.58;84.79
32873;BME280;19224;52.462;16.898;2023-02-10T00:39:39;101760.13;;;0.63;84.85
32873;BME280;19224;52.462;16.898;2023-02-10T00:42:10;101756.06;;;0.57;85.17
32873;BME280;19224;52.462;16.898;2023-02-10T00:44:40;101750.80;;;0.60;85.19
32873;BME280;19224;52.462;16.898;2023-02-10T00:47:10;101747.52;;;0.50;85.62
32873;BME280;19224;52.462;16.898;2023-02-10T00:49:41;101744.91;;;0.51;85.74
32873;BME280;19224;52.462;16.898;2023-02-10T00:52:11;101737.83;;;0.50;85.77
32873;BME280;19224;52.462;16.898;2023-02-10T00:54:41;101744.45;;;0.50;85.93
32873;BME280;19224;52.462;16.898;2023-02-10T00:57:12;101740.44;;;0.49;86.28
32873;BME280;19224;52.462;16.898;2023-02-10T00:59:42;101737.66;;;0.41;86.61
32873;BME280;19224;52.462;16.898;2023-02-10T01:02:12;101737.70;;;0.44;86.72
32873;BME280;19224;52.462;16.898;2023-02-10T01:04:43;101737.24;;;0.43;86.99
32873;BME280;19224;52.462;16.898;2023-02-10T01:07:13;101741.64;;;0.43;87.13
32873;BME280;19224;52.462;16.898;2023-02-10T01:09:43;101740.77;;;0.44;87.14
32873;BME280;19224;52.462;16.898;2023-02-10T01:12:14;101734.23;;;0.47;87.00
32873;BME280;19224;52.462;16.898;2023-02-10T01:14:44;101741.27;;;0.45;87.25
32873;BME280;19224;52.462;16.898;2023-02-10T01:17:14;101743.96;;;0.49;87.38
32873;BME280;19224;52.462;16.898;2023-02-10T01:19:45;101739.66;;;0.54;87.07
32873;BME280;19224;52.462;16.898;2023-02-10T01:22:17;101734.03;;;0.61;86.74
32873;BME280;19224;52.462;16.898;2023-02-10T01:24:47;101734.16;;;0.67;86.85
32873;BME280;19224;52.462;16.898;2023-02-10T01:27:17;101732.75;;;0.62;87.05
32873;BME280;19224;52.462;16.898;2023-02-10T01:29:48;101734.70;;;0.72;86.85
32873;BME280;19224;52.462;16.898;2023-02-10T01:32:18;101735.70;;;0.79;86.12
32873;BME280;19224;52.462;16.898;2023-02-10T01:34:48;101728.28;;;0.86;86.15
32873;BME280;19224;52.462;16.898;2023-02-10T01:37:18;101727.75;;;0.80;86.40
32873;BME280;19224;52.462;16.898;2023-02-10T01:39:49;101716.39;;;0.89;85.85
32873;BME280;19224;52.462;16.898;2023-02-10T01:42:19;101720.07;;;0.97;85.33
32873;BME280;19224;52.462;16.898;2023-02-10T01:47:25;101716.55;;;0.98;85.18
32873;BME280;19224;52.462;16.898;2023-02-10T01:49:56;101719.40;;;1.10;84.49
32873;BME280;19224;52.462;16.898;2023-02-10T01:52:28;101728.48;;;0.98;85.59
32873;BME280;19224;52.462;16.898;2023-02-10T01:55:09;101728.14;;;1.03;85.14
32873;BME280;19224;52.462;16.898;2023-02-10T01:57:43;101732.54;;;1.01;85.60
32873;BME280;19224;52.462;16.898;2023-02-10T02:00:15;101735.73;;;1.08;85.35
32873;BME280;19224;52.462;16.898;2023-02-10T02:02:46;101732.70;;;1.11;84.95
32873;BME280;19224;52.462;16.898;2023-02-10T02:05:40;101728.19;;;1.06;85.15
32873;BME280;19224;52.462;16.898;2023-02-10T02:08:23;101735.42;;;1.16;85.23
32873;BME280;19224;52.462;16.898;2023-02-10T02:11:25;101729.78;;;1.22;84.41
32873;BME280;19224;52.462;16.898;2023-02-10T02:14:41;101731.03;;;1.18;84.78
32873;BME280;19224;52.462;16.898;2023-02-10T02:17:48;101733.19;;;1.14;85.15
32873;BME280;19224;52.462;16.898;2023-02-10T02:23:48;101708.59;;;1.24;84.60
32873;BME280;19224;52.462;16.898;2023-02-10T02:26:45;101712.19;;;1.29;84.38
32873;BME280;19224;52.462;16.898;2023-02-10T02:32:17;101733.53;;;1.09;85.77
32873;BME280;19224;52.462;16.898;2023-02-10T02:35:15;101726.97;;;1.12;85.96
32873;BME280;19224;52.462;16.898;2023-02-10T02:37:47;101722.69;;;1.21;85.69
32873;BME280;19224;52.462;16.898;2023-02-10T02:40:19;101733.19;;;1.14;86.38
32873;BME280;19224;52.462;16.898;2023-02-10T02:42:50;101735.39;;;1.14;86.61
32873;BME280;19224;52.462;16.898;2023-02-10T02:45:30;101727.35;;;1.08;87.11
32873;BME280;19224;52.462;16.898;2023-02-10T02:48:30;101737.17;;;1.14;86.83
32873;BME280;19224;52.462;16.898;2023-02-10T02:51:14;101744.71;;;1.16;87.01
32873;BME280;19224;52.462;16.898;2023-02-10T02:56:36;101735.31;;;1.10;87.30
32873;BME280;19224;52.462;16.898;2023-02-10T03:00:26;101733.64;;;1.15;87.82
32873;BME280;19224;52.462;16.898;2023-02-10T03:02:11;101740.77;;;1.19;87.83
32873;BME280;19224;52.462;16.898;2023-02-10T03:04:42;101731.59;;;0.97;89.00
32873;BME280;19224;52.462;16.898;2023-02-10T03:07:13;101731.71;;;1.05;89.12
32873;BME280;19224;52.462;16.898;2023-02-10T03:09:44;101733.87;;;1.01;89.73
32873;BME280;19224;52.462;16.898;2023-02-10T03:12:14;101732.32;;;1.15;89.32
32873;BME280;19224;52.462;16.898;2023-02-10T03:14:45;101736.30;;;1.15;89.19
32873;BME280;19224;52.462;16.898;2023-02-10T03:17:16;101746.38;;;1.11;89.69
32873;BME280;19224;52.462;16.898;2023-02-10T03:19:47;101752.02;;;1.04;90.47
32873;BME280;19224;52.462;16.898;2023-02-10T03:22:17;101757.20;;;0.97;91.11
32873;BME280;19224;52.462;16.898;2023-02-10T03:24:48;101746.87;;;1.12;90.83
32873;BME280;19224;52.462;16.898;2023-02-10T03:27:19;101743.31;;;1.11;90.83
32873;BME280;19224;52.462;16.898;2023-02-10T03:29:49;101752.86;;;1.28;90.47
32873;BME280;19224;52.462;16.898;2023-02-10T03:32:21;101752.29;;;1.19;90.88
32873;BME280;19224;52.462;16.898;2023-02-10T03:34:52;101752.83;;;1.25;90.79
32873;BME280;19224;52.462;16.898;2023-02-10T03:37:22;101762.19;;;1.31;90.86
32873;BME280;19224;52.462;16.898;2023-02-10T03:39:53;101757.83;;;1.34;90.85
32873;BME280;19224;52.462;16.898;2023-02-10T03:42:24;101763.09;;;1.31;90.98
32873;BME280;19224;52.462;16.898;2023-02-10T03:44:54;101764.34;;;1.27;91.49
32873;BME280;19224;52.462;16.898;2023-02-10T03:47:26;101775.83;;;1.26;91.87
32873;BME280;19224;52.462;16.898;2023-02-10T03:49:56;101762.91;;;1.21;92.48
32873;BME280;19224;52.462;16.898;2023-02-10T03:52:27;101768.13;;;1.15;93.29
32873;BME280;19224;52.462;16.898;2023-02-10T03:54:57;101766.73;;;1.38;92.19
32873;BME280;19224;52.462;16.898;2023-02-10T03:57:28;101764.68;;;1.48;91.99
32873;BME280;19224;52.462;16.898;2023-02-10T03:59:59;101775.45;;;1.29;92.97
32873;BME280;19224;52.462;16.898;2023-02-10T04:02:29;101782.50;;;1.29;93.18
32873;BME280;19224;52.462;16.898;2023-02-10T04:05:00;101775.91;;;1.32;93.20
32873;BME280;19224;52.462;16.898;2023-02-10T04:07:30;101783.00;;;1.33;93.14
32873;BME280;19224;52.462;16.898;2023-02-10T04:10:01;101778.06;;;1.28;93.61
32873;BME280;19224;52.462;16.898;2023-02-10T04:12:31;101785.38;;;1.16;94.28
32873;BME280;19224;52.462;16.898;2023-02-10T04:15:04;101788.41;;;1.11;95.01
32873;BME280;19224;52.462;16.898;2023-02-10T04:17:35;101784.12;;;1.19;94.79
32873;BME280;19224;52.462;16.898;2023-02-10T04:20:07;101776.20;;;1.22;94.98
32873;BME280;19224;52.462;16.898;2023-02-10T04:22:38;101777.75;;;1.10;95.40
32873;BME280;19224;52.462;16.898;2023-02-10T04:25:08;101785.17;;;1.04;95.96
32873;BME280;19224;52.462;16.898;2023-02-10T04:27:39;101784.09;;;1.18;95.60
32873;BME280;19224;52.462;16.898;2023-02-10T04:30:11;101790.64;;;1.12;95.99
32873;BME280;19224;52.462;16.898;2023-02-10T04:32:42;101788.45;;;1.14;96.43
32873;BME280;19224;52.462;16.898;2023-02-10T04:35:12;101785.42;;;1.18;96.22
32873;BME280;19224;52.462;16.898;2023-02-10T04:37:43;101777.75;;;1.10;96.83
32873;BME280;19224;52.462;16.898;2023-02-10T04:40:13;101776.88;;;1.09;96.67
32873;BME280;19224;52.462;16.898;2023-02-10T04:42:44;101768.84;;;1.05;97.21
32873;BME280;19224;52.462;16.898;2023-02-10T04:45:15;101774.15;;;1.05;97.53
32873;BME280;19224;52.462;16.898;2023-02-10T04:47:46;101770.42;;;0.94;98.01
32873;BME280;19224;52.462;16.898;2023-02-10T04:50:17;101773.07;;;0.94;98.10
32873;BME280;19224;52.462;16.898;2023-02-10T04:52:47;101775.27;;;0.94;98.56
32873;BME280;19224;52.462;16.898;2023-02-10T04:55:18;101776.55;;;0.91;98.67
32873;BME280;19224;52.462;16.898;2023-02-10T04:57:48;101777.46;;;0.92;98.86
32873;BME280;19224;52.462;16.898;2023-02-10T05:00:19;101784.51;;;0.91;99.18
32873;BME280;19224;52.462;16.898;2023-02-10T05:02:49;101782.77;;;0.93;99.58
32873;BME280;19224;52.462;16.898;2023-02-10T05:05:20;101772.62;;;0.93;99.86
32873;BME280;19224;52.462;16.898;2023-02-10T05:07:52;101781.73;;;0.84;100.00
32873;BME280;19224;52.462;16.898;2023-02-10T05:10:23;101777.47;;;0.93;100.00
32873;BME280;19224;52.462;16.898;2023-02-10T05:12:53;101775.73;;;0.94;100.00
32873;BME280;19224;52.462;16.898;2023-02-10T05:15:23;101773.11;;;0.97;100.00
32873;BME280;19224;52.462;16.898;2023-02-10T05:17:54;101773.48;;;0.92;100.00
32873;BME280;19224;52.462;16.898;2023-02-10T05:20:24;101770.09;;;1.00;100.00
32873;BME280;19224;52.462;16.898;2023-02-10T05:22:54;101774.40;;;0.94;100.00
32873;BME280;19224;52.462;16.898;2023-02-10T05:25:25;101780.16;;;0.95;100.00
32873;BME280;19224;52.462;16.898;2023-02-10T05:27:55;101779.29;;;0.96;100.00
32873;BME280;19224;52.462;16.898;2023-02-10T05:30:25;101788.07;;;0.92;100.00
32873;BME280;19224;52.462;16.898;2023-02-10T05:32:56;101789.27;;;0.86;100.00
32873;BME280;19224;52.462;16.898;2023-02-10T05:35:26;101797.89;;;0.97;100.00
32873;BME280;19224;52.462;16.898;2023-02-10T05:37:56;101800.63;;;1.02;100.00
32873;BME280;19224;52.462;16.898;2023-02-10T05:40:32;101801.21;;;1.10;100.00
32873;BME280;19224;52.462;16.898;2023-02-10T05:42:58;101799.39;;;1.08;100.00
32873;BME280;19224;52.462;16.898;2023-02-10T05:45:29;101791.80;;;1.03;100.00
32873;BME280;19224;52.462;16.898;2023-02-10T05:47:59;101798.64;;;1.15;100.00
32873;BME280;19224;52.462;16.898;2023-02-10T05:50:29;101803.41;;;1.11;100.00
32873;BME280;19224;52.462;16.898;2023-02-10T05:53:00;101798.14;;;1.12;100.00
32873;BME280;19224;52.462;16.898;2023-02-10T05:55:30;101806.69;;;1.21;100.00
32873;BME280;19224;52.462;16.898;2023-02-10T05:58:00;101805.55;;;1.31;100.00
32873;BME280;19224;52.462;16.898;2023-02-10T06:00:31;101812.72;;;1.37;100.00
32873;BME280;19224;52.462;16.898;2023-02-10T06:03:02;101808.36;;;1.40;100.00
32873;BME280;19224;52.462;16.898;2023-02-10T06:05:32;101810.03;;;1.34;100.00
32873;BME280;19224;52.462;16.898;2023-02-10T06:08:02;101805.47;;;1.27;100.00
32873;BME280;19224;52.462;16.898;2023-02-10T06:10:33;101796.69;;;1.31;100.00
32873;BME280;19224;52.462;16.898;2023-02-10T06:13:03;101794.48;;;1.32;100.00
32873;BME280;19224;52.462;16.898;2023-02-10T06:15:34;101797.59;;;1.33;100.00
32873;BME280;19224;52.462;16.898;2023-02-10T06:18:05;101793.23;;;1.36;100.00
32873;BME280;19224;52.462;16.898;2023-02-10T06:20:35;101792.28;;;1.31;100.00
32873;BME280;19224;52.462;16.898;2023-02-10T06:23:06;101804.76;;;1.37;100.00
32873;BME280;19224;52.462;16.898;2023-02-10T06:25:36;101811.89;;;1.41;100.00
32873;BME280;19224;52.462;16.898;2023-02-10T06:28:07;101818.83;;;1.33;100.00
32873;BME280;19224;52.462;16.898;2023-02-10T06:30:38;101824.96;;;1.29;100.00
32873;BME280;19224;52.462;16.898;2023-02-10T06:33:08;101817.20;;;1.41;100.00
32873;BME280;19224;52.462;16.898;2023-02-10T06:35:39;101824.28;;;1.40;100.00
32873;BME280;19224;52.462;16.898;2023-02-10T06:38:09;101826.45;;;1.38;100.00
32873;BME280;19224;52.462;16.898;2023-02-10T06:40:40;101822.47;;;1.38;100.00
32873;BME280;19224;52.462;16.898;2023-02-10T06:43:11;101821.75;;;1.48;100.00
32873;BME280;19224;52.462;16.898;2023-02-10T06:45:42;101827.05;;;1.48;100.00
32873;BME280;19224;52.462;16.898;2023-02-10T06:48:12;101821.83;;;1.52;100.00
32873;BME280;19224;52.462;16.898;2023-02-10T06:50:43;101829.86;;;1.57;100.00
32873;BME280;19224;52.462;16.898;2023-02-10T06:53:13;101843.10;;;1.55;100.00
32873;BME280;19224;52.462;16.898;2023-02-10T06:55:44;101841.44;;;1.62;100.00
32873;BME280;19224;52.462;16.898;2023-02-10T06:58:16;101840.59;;;1.66;100.00
32873;BME280;19224;52.462;16.898;2023-02-10T07:00:47;101843.33;;;1.70;100.00
32873;BME280;19224;52.462;16.898;2023-02-10T07:03:17;101836.27;;;1.72;100.00
32873;BME280;19224;52.462;16.898;2023-02-10T07:05:47;101839.00;;;1.77;100.00
32873;BME280;19224;52.462;16.898;2023-02-10T07:08:18;101846.52;;;1.76;100.00
32873;BME280;19224;52.462;16.898;2023-02-10T07:10:48;101853.57;;;1.74;100.00
32873;BME280;19224;52.462;16.898;2023-02-10T07:13:19;101853.27;;;1.82;100.00
32873;BME280;19224;52.462;16.898;2023-02-10T07:15:49;101853.19;;;1.77;100.00
32873;BME280;19224;52.462;16.898;2023-02-10T07:18:19;101867.30;;;1.75;100.00
32873;BME280;19224;52.462;16.898;2023-02-10T07:20:50;101859.20;;;1.95;100.00
32873;BME280;19224;52.462;16.898;2023-02-10T07:23:20;101869.72;;;1.87;100.00
32873;BME280;19224;52.462;16.898;2023-02-10T07:25:50;101878.08;;;1.84;100.00
32873;BME280;19224;52.462;16.898;2023-02-10T07:28:21;101873.71;;;1.89;100.00
32873;BME280;19224;52.462;16.898;2023-02-10T07:30:51;101880.77;;;1.87;100.00
32873;BME280;19224;52.462;16.898;2023-02-10T07:33:21;101879.02;;;1.89;100.00
32873;BME280;19224;52.462;16.898;2023-02-10T07:35:52;101879.55;;;1.93;100.00
32873;BME280;19224;52.462;16.898;2023-02-10T07:38:22;101877.42;;;2.00;100.00
32873;BME280;19224;52.462;16.898;2023-02-10T07:40:52;101883.67;;;2.03;100.00
32873;BME280;19224;52.462;16.898;2023-02-10T07:43:23;101878.33;;;2.00;100.00
32873;BME280;19224;52.462;16.898;2023-02-10T07:45:53;101891.47;;;1.90;100.00
32873;BME280;19224;52.462;16.898;2023-02-10T07:48:23;101898.48;;;1.88;100.00
32873;BME280;19224;52.462;16.898;2023-02-10T07:50:54;101901.30;;;1.97;100.00
32873;BME280;19224;52.462;16.898;2023-02-10T07:53:25;101900.98;;;2.05;100.00
32873;BME280;19224;52.462;16.898;2023-02-10T07:55:59;101894.94;;;2.15;100.00
32873;BME280;19224;52.462;16.898;2023-02-10T07:58:30;101891.86;;;2.17;100.00
32873;BME280;19224;52.462;16.898;2023-02-10T08:01:08;101898.09;;;2.19;100.00
32873;BME280;19224;52.462;16.898;2023-02-10T08:03:39;101888.33;;;2.18;100.00
32873;BME280;19224;52.462;16.898;2023-02-10T08:06:09;101894.13;;;2.22;100.00
32873;BME280;19224;52.462;16.898;2023-02-10T08:08:40;101887.55;;;2.26;100.00
32873;BME280;19224;52.462;16.898;2023-02-10T08:11:11;101890.98;;;2.18;100.00
32873;BME280;19224;52.462;16.898;2023-02-10T08:13:41;101902.52;;;2.20;100.00
32873;BME280;19224;52.462;16.898;2023-02-10T08:16:11;101900.78;;;2.22;100.00
32873;BME280;19224;52.462;16.898;2023-02-10T08:18:42;101903.89;;;2.21;100.00
32873;BME280;19224;52.462;16.898;2023-02-10T08:21:12;101904.27;;;2.18;100.00
32873;BME280;19224;52.462;16.898;2023-02-10T08:23:42;101910.60;;;2.26;100.00
32873;BME280;19224;52.462;16.898;2023-02-10T08:26:14;101918.61;;;2.28;100.00
32873;BME280;19224;52.462;16.898;2023-02-10T08:28:45;101910.73;;;2.36;100.00
32873;BME280;19224;52.462;16.898;2023-02-10T08:31:15;101915.63;;;2.38;100.00
32873;BME280;19224;52.462;16.898;2023-02-10T08:33:45;101914.27;;;2.33;100.00
32873;BME280;19224;52.462;16.898;2023-02-10T08:36:19;101917.91;;;2.40;100.00
32873;BME280;19224;52.462;16.898;2023-02-10T08:38:50;101923.39;;;2.52;100.00
32873;BME280;19224;52.462;16.898;2023-02-10T08:41:21;101914.02;;;2.47;100.00
32873;BME280;19224;52.462;16.898;2023-02-10T08:43:52;101922.31;;;2.39;100.00
32873;BME280;19224;52.462;16.898;2023-02-10T08:46:22;101925.88;;;2.41;100.00
32873;BME280;19224;52.462;16.898;2023-02-10T08:48:53;101924.23;;;2.49;100.00
32873;BME280;19224;52.462;16.898;2023-02-10T08:51:23;101923.00;;;2.55;100.00
32873;BME280;19224;52.462;16.898;2023-02-10T08:53:54;101918.16;;;2.61;100.00
32873;BME280;19224;52.462;16.898;2023-02-10T08:56:26;101910.70;;;2.66;100.00
32873;BME280;19224;52.462;16.898;2023-02-10T08:58:57;101914.23;;;2.65;100.00
32873;BME280;19224;52.462;16.898;2023-02-10T09:01:27;101916.45;;;2.63;100.00
32873;BME280;19224;52.462;16.898;2023-02-10T09:03:58;101913.84;;;2.67;100.00
32873;BME280;19224;52.462;16.898;2023-02-10T09:06:33;101913.55;;;2.80;100.00
32873;BME280;19224;52.462;16.898;2023-02-10T09:09:17;101913.91;;;2.73;100.00
32873;BME280;19224;52.462;16.898;2023-02-10T09:11:50;101934.64;;;2.65;100.00
32873;BME280;19224;52.462;16.898;2023-02-10T09:14:22;101955.98;;;2.69;100.00
32873;BME280;19224;52.462;16.898;2023-02-10T09:16:53;101945.80;;;2.72;100.00
32873;BME280;19224;52.462;16.898;2023-02-10T09:19:23;101939.59;;;2.71;100.00
32873;BME280;19224;52.462;16.898;2023-02-10T09:21:54;101933.10;;;2.83;100.00
32873;BME280;19224;52.462;16.898;2023-02-10T09:24:25;101945.98;;;2.85;100.00
32873;BME280;19224;52.462;16.898;2023-02-10T09:26:55;101963.70;;;2.83;100.00
32873;BME280;19224;52.462;16.898;2023-02-10T09:29:26;101957.50;;;2.84;100.00
32873;BME280;19224;52.462;16.898;2023-02-10T09:31:57;101962.39;;;2.86;100.00
32873;BME280;19224;52.462;16.898;2023-02-10T09:34:27;101954.47;;;2.91;100.00
32873;BME280;19224;52.462;16.898;2023-02-10T09:36:59;101963.88;;;2.97;100.00
32873;BME280;19224;52.462;16.898;2023-02-10T09:39:31;101961.64;;;2.96;100.00
32873;BME280;19224;52.462;16.898;2023-02-10T09:44:55;101957.65;;;2.95;100.00
32873;BME280;19224;52.462;16.898;2023-02-10T09:47:44;101956.31;;;2.96;100.00
32873;BME280;19224;52.462;16.898;2023-02-10T09:50:34;101954.95;;;2.93;100.00
32873;BME280;19224;52.462;16.898;2023-02-10T09:53:28;101952.20;;;2.87;100.00
32873;BME280;19224;52.462;16.898;2023-02-10T09:56:09;101946.52;;;2.92;100.00
32873;BME280;19224;52.462;16.898;2023-02-10T09:58:52;101949.61;;;2.90;100.00
32873;BME280;19224;52.462;16.898;2023-02-10T10:04:13;101953.93;;;2.82;100.00
32873;BME280;19224;52.462;16.898;2023-02-10T10:06:51;101961.81;;;2.76;100.00
32873;BME280;19224;52.462;16.898;2023-02-10T10:09:46;101950.42;;;2.86;100.00
32873;BME280;19224;52.462;16.898;2023-02-10T10:12:19;101939.90;;;2.95;100.00
32873;BME280;19224;52.462;16.898;2023-02-10T10:14:50;101946.89;;;2.87;100.00
32873;BME280;19224;52.462;16.898;2023-02-10T10:17:46;101947.03;;;2.99;100.00
32873;BME280;19224;52.462;16.898;2023-02-10T10:20:49;101945.73;;;3.01;100.00
32873;BME280;19224;52.462;16.898;2023-02-10T10:31:47;101952.23;;;3.25;100.00
32873;BME280;19224;52.462;16.898;2023-02-10T10:34:21;101957.53;;;3.24;100.00
32873;BME280;19224;52.462;16.898;2023-02-10T10:36:56;101952.27;;;3.28;100.00
32873;BME280;19224;52.462;16.898;2023-02-10T10:39:43;101959.80;;;3.27;100.00
32873;BME280;19224;52.462;16.898;2023-02-10T10:42:45;101960.03;;;3.48;100.00
32873;BME280;19224;52.462;16.898;2023-02-10T10:45:26;101958.06;;;3.31;100.00
32873;BME280;19224;52.462;16.898;2023-02-10T10:48:16;101941.37;;;3.45;100.00
32873;BME280;19224;52.462;16.898;2023-02-10T10:50:47;101944.93;;;3.47;100.00
32873;BME280;19224;52.462;16.898;2023-02-10T10:53:37;101942.59;;;3.36;100.00
32873;BME280;19224;52.462;16.898;2023-02-10T10:56:42;101945.28;;;3.39;100.00
32873;BME280;19224;52.462;16.898;2023-02-10T10:59:36;101945.27;;;3.36;100.00
32873;BME280;19224;52.462;16.898;2023-02-10T11:02:20;101928.11;;;3.54;100.00
32873;BME280;19224;52.462;16.898;2023-02-10T11:05:08;101943.73;;;3.62;100.00
32873;BME280;19224;52.462;16.898;2023-02-10T11:07:37;101936.67;;;3.66;100.00
32873;BME280;19224;52.462;16.898;2023-02-10T11:10:26;101939.02;;;3.78;100.00
32873;BME280;19224;52.462;16.898;2023-02-10T11:12:53;101926.15;;;3.79;100.00
32873;BME280;19224;52.462;16.898;2023-02-10T11:18:21;101930.86;;;4.13;100.00
32873;BME280;19224;52.462;16.898;2023-02-10T11:20:59;101929.47;;;4.07;100.00
32873;BME280;19224;52.462;16.898;2023-02-10T11:23:30;101940.22;;;4.19;100.00
32873;BME280;19224;52.462;16.898;2023-02-10T11:26:05;101932.77;;;4.34;100.00
32873;BME280;19224;52.462;16.898;2023-02-10T11:28:36;101928.77;;;4.34;100.00
32873;BME280;19224;52.462;16.898;2023-02-10T11:36:46;101931.37;;;4.23;100.00
32873;BME280;19224;52.462;16.898;2023-02-10T11:39:31;101940.35;;;4.37;100.00
32873;BME280;19224;52.462;16.898;2023-02-10T11:42:21;101933.78;;;4.54;100.00
32873;BME280;19224;52.462;16.898;2023-02-10T11:47:42;101917.25;;;4.42;100.00
32873;BME280;19224;52.462;16.898;2023-02-10T11:50:26;101924.30;;;4.31;100.00
32873;BME280;19224;52.462;16.898;2023-02-10T11:52:57;101919.86;;;4.33;100.00
32873;BME280;19224;52.462;16.898;2023-02-10T11:55:45;101907.95;;;4.45;100.00
32873;BME280;19224;52.462;16.898;2023-02-10T12:02:00;101916.11;;;4.76;100.00
32873;BME280;19224;52.462;16.898;2023-02-10T12:04:48;101901.39;;;4.70;100.00
32873;BME280;19224;52.462;16.898;2023-02-10T12:07:35;101906.33;;;4.78;100.00
32873;BME280;19224;52.462;16.898;2023-02-10T12:10:21;101920.13;;;4.78;100.00
32873;BME280;19224;52.462;16.898;2023-02-10T12:16:01;101913.94;;;4.86;100.00
32873;BME280;19224;52.462;16.898;2023-02-10T12:19:12;101923.23;;;4.77;100.00
32873;BME280;19224;52.462;16.898;2023-02-10T12:22:11;101914.80;;;4.78;100.00
32873;BME280;19224;52.462;16.898;2023-02-10T12:27:45;101924.52;;;4.71;100.00
32873;BME280;19224;52.462;16.898;2023-02-10T12:36:36;101936.59;;;4.82;100.00
32873;BME280;19224;52.462;16.898;2023-02-10T12:39:29;101929.88;;;4.73;100.00
32873;BME280;19224;52.462;16.898;2023-02-10T12:57:12;101922.30;;;4.69;100.00
32873;BME280;19224;52.462;16.898;2023-02-10T13:00:03;101919.18;;;4.71;100.00
32873;BME280;19224;52.462;16.898;2023-02-10T13:02:46;101918.36;;;4.80;100.00
32873;BME280;19224;52.462;16.898;2023-02-10T13:05:21;101913.53;;;4.94;100.00
32873;BME280;19224;52.462;16.898;2023-02-10T13:08:00;101905.50;;;4.96;100.00
32873;BME280;19224;52.462;16.898;2023-02-10T13:10:52;101913.06;;;4.95;100.00
32873;BME280;19224;52.462;16.898;2023-02-10T13:13:27;101920.19;;;4.96;100.00
32873;BME280;19224;52.462;16.898;2023-02-10T13:16:20;101926.01;;;5.00;100.00
32873;BME280;19224;52.462;16.898;2023-02-10T13:19:06;101921.52;;;4.96;100.00
32873;BME280;19224;52.462;16.898;2023-02-10T13:21:51;101911.79;;;5.05;100.00
32873;BME280;19224;52.462;16.898;2023-02-10T13:36:19;101924.67;;;5.06;100.00
32873;BME280;19224;52.462;16.898;2023-02-10T13:39:02;101917.09;;;5.02;100.00
32873;BME280;19224;52.462;16.898;2023-02-10T13:41:34;101919.30;;;4.91;100.00
32873;BME280;19224;52.462;16.898;2023-02-10T13:44:27;101907.30;;;4.98;100.00
32873;BME280;19224;52.462;16.898;2023-02-10T13:47:19;101910.42;;;4.96;100.00
32873;BME280;19224;52.462;16.898;2023-02-10T13:50:02;101911.31;;;5.01;100.00
32873;BME280;19224;52.462;16.898;2023-02-10T13:52:32;101915.33;;;5.00;100.00
32873;BME280;19224;52.462;16.898;2023-02-10T13:56:02;101916.22;;;5.08;100.00
32873;BME280;19224;52.462;16.898;2023-02-10T14:00:49;101911.34;;;5.07;100.00
32873;BME280;19224;52.462;16.898;2023-02-10T14:03:32;101906.88;;;5.08;100.00
32873;BME280;19224;52.462;16.898;2023-02-10T14:06:08;101912.64;;;5.01;100.00
32873;BME280;19224;52.462;16.898;2023-02-10T14:08:43;101910.45;;;5.05;100.00
32873;BME280;19224;52.462;16.898;2023-02-10T14:14:15;101915.80;;;5.05;100.00
32873;BME280;19224;52.462;16.898;2023-02-10T14:16:38;101911.33;;;5.03;100.00
32873;BME280;19224;52.462;16.898;2023-02-10T14:19:31;101912.22;;;5.08;100.00
32873;BME280;19224;52.462;16.898;2023-02-10T14:22:04;101909.55;;;5.08;100.00
32873;BME280;19224;52.462;16.898;2023-02-10T14:24:42;101903.31;;;5.06;100.00
32873;BME280;19224;52.462;16.898;2023-02-10T14:27:10;101910.90;;;5.09;100.00
32873;BME280;19224;52.462;16.898;2023-02-10T14:29:50;101902.00;;;5.07;100.00
32873;BME280;19224;52.462;16.898;2023-02-10T14:32:18;101904.66;;;5.03;100.00
32873;BME280;19224;52.462;16.898;2023-02-10T14:35:03;101909.52;;;4.99;100.00
32873;BME280;19224;52.462;16.898;2023-02-10T14:37:35;101898.38;;;4.98;100.00
32873;BME280;19224;52.462;16.898;2023-02-10T14:40:15;101902.42;;;5.07;100.00
32873;BME280;19224;52.462;16.898;2023-02-10T14:42:40;101905.95;;;4.97;100.00
32873;BME280;19224;52.462;16.898;2023-02-10T14:45:28;101900.16;;;4.96;100.00
32873;BME280;19224;52.462;16.898;2023-02-10T14:48:01;101906.84;;;4.93;100.00